createdAt,value
2022-12-24T00:00:00.233Z,100.00
2022-12-24T00:02:27.358Z,100.00
2022-12-24T00:05:00.437Z,100.00
2022-12-24T00:07:27.456Z,100.00
2022-12-24T00:09:53.831Z,100.00
2022-12-24T00:12:20.404Z,100.00
2022-12-24T00:14:46.908Z,100.00
2022-12-24T00:17:13.449Z,100.00
2022-12-24T00:19:39.880Z,100.00
2022-12-24T00:22:06.324Z,100.00
2022-12-24T00:24:32.753Z,100.00
2022-12-24T00:26:59.188Z,100.00
2022-12-24T00:29:25.713Z,100.00
2022-12-24T00:31:52.111Z,100.00
2022-12-24T00:34:18.592Z,100.00
2022-12-24T00:36:44.975Z,100.00
2022-12-24T00:39:11.482Z,100.00
2022-12-24T00:41:37.831Z,100.00
2022-12-24T00:44:06.588Z,100.00
2022-12-24T00:46:34.691Z,100.00
2022-12-24T00:49:02.022Z,100.00
2022-12-24T00:51:28.945Z,100.00
2022-12-24T00:53:55.505Z,100.00
2022-12-24T00:56:22.678Z,100.00
2022-12-24T00:58:49.592Z,100.00
2022-12-24T01:01:16.615Z,100.00
2022-12-24T01:03:43.728Z,100.00
2022-12-24T01:06:17.672Z,100.00
2022-12-24T01:08:44.648Z,100.00
2022-12-24T01:11:12.986Z,100.00
2022-12-24T01:13:40.152Z,100.00
2022-12-24T01:16:16.946Z,100.00
2022-12-24T01:18:43.489Z,100.00
2022-12-24T01:21:09.970Z,100.00
2022-12-24T01:23:36.420Z,100.00
2022-12-24T01:26:04.816Z,100.00
2022-12-24T01:28:31.885Z,100.00
2022-12-24T01:30:58.330Z,100.00
2022-12-24T01:33:24.739Z,100.00
2022-12-24T01:35:51.127Z,100.00
2022-12-24T01:38:17.489Z,100.00
2022-12-24T01:41:02.511Z,100.00
2022-12-24T01:43:31.409Z,100.00
2022-12-24T01:46:07.131Z,100.00
2022-12-24T01:48:45.073Z,100.00
2022-12-24T01:51:42.509Z,100.00
2022-12-24T01:54:20.701Z,100.00
2022-12-24T01:56:52.718Z,100.00
2022-12-24T01:59:21.076Z,100.00
2022-12-24T02:01:51.019Z,100.00
2022-12-24T02:04:51.681Z,100.00
2022-12-24T02:07:18.137Z,100.00
2022-12-24T02:09:44.576Z,100.00
2022-12-24T02:12:11.180Z,100.00
2022-12-24T02:14:38.044Z,100.00
2022-12-24T02:17:23.238Z,100.00
2022-12-24T02:19:58.749Z,100.00
2022-12-24T02:22:28.141Z,100.00
2022-12-24T02:25:03.398Z,100.00
2022-12-24T02:27:38.329Z,100.00
2022-12-24T02:30:06.987Z,100.00
2022-12-24T02:32:56.767Z,100.00
2022-12-24T02:35:58.400Z,100.00
2022-12-24T02:38:49.043Z,100.00
2022-12-24T02:41:50.025Z,100.00
2022-12-24T02:44:19.168Z,100.00
2022-12-24T02:46:46.683Z,100.00
2022-12-24T02:49:13.802Z,100.00
2022-12-24T02:51:40.261Z,100.00
2022-12-24T02:54:07.249Z,100.00
2022-12-24T02:56:41.418Z,100.00
2022-12-24T02:59:10.808Z,100.00
2022-12-24T03:02:19.502Z,100.00
2022-12-24T03:05:33.996Z,100.00
2022-12-24T03:08:12.362Z,100.00
2022-12-24T03:10:51.937Z,100.00
2022-12-24T03:13:21.031Z,100.00
2022-12-24T03:15:48.941Z,100.00
2022-12-24T03:18:20.412Z,100.00
2022-12-24T03:21:00.721Z,100.00
2022-12-24T03:23:27.453Z,100.00
2022-12-24T03:25:54.547Z,100.00
2022-12-24T03:28:26.907Z,100.00
2022-12-24T03:30:53.983Z,100.00
2022-12-24T03:33:20.588Z,100.00
2022-12-24T03:35:47.154Z,100.00
2022-12-24T03:38:13.653Z,100.00
2022-12-24T03:40:40.092Z,100.00
2022-12-24T03:43:06.454Z,100.00
2022-12-24T03:45:32.973Z,100.00
2022-12-24T03:47:59.428Z,100.00
2022-12-24T03:50:25.832Z,100.00
2022-12-24T03:52:52.303Z,100.00
2022-12-24T03:55:18.669Z,100.00
2022-12-24T03:57:45.072Z,100.00
2022-12-24T04:00:12.022Z,100.00
2022-12-24T04:02:38.615Z,100.00
2022-12-24T04:05:05.737Z,100.00
2022-12-24T04:07:33.529Z,100.00
2022-12-24T04:10:00.044Z,100.00
2022-12-24T04:12:26.515Z,100.00
2022-12-24T04:14:52.895Z,100.00
2022-12-24T04:17:19.285Z,100.00
2022-12-24T04:19:45.695Z,100.00
2022-12-24T04:22:12.091Z,100.00
2022-12-24T04:24:38.557Z,100.00
2022-12-24T04:27:04.966Z,100.00
2022-12-24T04:29:31.340Z,99.96
2022-12-24T04:31:57.791Z,100.00
2022-12-24T04:34:24.254Z,99.94
2022-12-24T04:36:50.626Z,100.00
2022-12-24T04:39:17.059Z,99.85
2022-12-24T04:41:43.536Z,99.43
2022-12-24T04:44:10.538Z,99.20
2022-12-24T04:46:37.103Z,98.53
2022-12-24T04:49:03.473Z,97.87
2022-12-24T04:51:29.981Z,97.62
2022-12-24T04:53:56.912Z,97.16
2022-12-24T04:56:26.622Z,96.87
2022-12-24T04:58:53.680Z,96.63
2022-12-24T05:01:23.173Z,96.06
2022-12-24T05:03:50.652Z,95.29
2022-12-24T05:06:20.591Z,94.46
2022-12-24T05:08:47.076Z,94.23
2022-12-24T05:11:15.518Z,94.08
2022-12-24T05:13:47.447Z,93.78
2022-12-24T05:16:15.874Z,93.55
2022-12-24T05:18:42.435Z,92.75
2022-12-24T05:21:19.810Z,92.61
2022-12-24T05:24:04.830Z,92.84
2022-12-24T05:26:39.004Z,92.49
2022-12-24T05:29:06.537Z,92.40
2022-12-24T05:31:34.017Z,92.23
2022-12-24T05:34:01.664Z,92.43
2022-12-24T05:36:28.298Z,92.36
2022-12-24T05:38:54.902Z,92.56
2022-12-24T05:41:22.851Z,92.78
2022-12-24T05:43:50.044Z,93.45
2022-12-24T05:46:19.322Z,93.98
2022-12-24T05:48:47.068Z,94.76
2022-12-24T05:51:15.391Z,95.41
2022-12-24T05:53:41.989Z,96.25
2022-12-24T05:56:11.528Z,97.18
2022-12-24T05:58:39.197Z,98.17
2022-12-24T06:01:06.241Z,99.37
2022-12-24T06:03:33.761Z,99.91
2022-12-24T06:06:08.377Z,100.00
2022-12-24T06:08:36.558Z,100.00
2022-12-24T06:11:05.304Z,100.00
2022-12-24T06:13:32.153Z,100.00
2022-12-24T06:16:00.868Z,100.00
2022-12-24T06:18:29.546Z,100.00
2022-12-24T06:20:56.911Z,100.00
2022-12-24T06:23:24.278Z,100.00
2022-12-24T06:25:50.993Z,100.00
2022-12-24T06:28:17.498Z,100.00
2022-12-24T06:30:48.777Z,100.00
2022-12-24T06:33:16.055Z,100.00
2022-12-24T06:35:44.344Z,100.00
2022-12-24T06:38:10.757Z,99.98
2022-12-24T06:40:41.301Z,99.97
2022-12-24T06:43:07.786Z,99.74
2022-12-24T06:45:34.241Z,99.73
2022-12-24T06:48:01.175Z,99.48
2022-12-24T06:50:28.245Z,99.10
2022-12-24T06:52:54.626Z,98.40
2022-12-24T06:55:21.043Z,97.64
2022-12-24T06:57:47.480Z,97.12
2022-12-24T07:00:14.616Z,96.66
2022-12-24T07:02:44.476Z,96.45
2022-12-24T07:05:12.517Z,96.37
2022-12-24T07:07:41.072Z,95.93
2022-12-24T07:10:10.296Z,95.41
2022-12-24T07:12:36.718Z,95.12
2022-12-24T07:15:03.284Z,94.92
2022-12-24T07:17:29.880Z,94.49
2022-12-24T07:19:56.304Z,94.32
2022-12-24T07:22:22.705Z,93.84
2022-12-24T07:24:49.098Z,93.66
2022-12-24T07:27:15.480Z,93.66
2022-12-24T07:29:41.923Z,93.30
2022-12-24T07:32:08.921Z,93.35
2022-12-24T07:34:35.712Z,93.38
2022-12-24T07:37:02.236Z,93.12
2022-12-24T07:39:28.645Z,92.69
2022-12-24T07:41:55.054Z,92.32
2022-12-24T07:44:21.523Z,92.06
2022-12-24T07:46:47.967Z,91.89
2022-12-24T07:49:14.388Z,91.87
2022-12-24T07:51:40.772Z,91.20
2022-12-24T07:54:07.218Z,91.43
2022-12-24T07:56:34.520Z,91.42
2022-12-24T07:59:00.952Z,91.21
2022-12-24T08:01:27.435Z,91.40
2022-12-24T08:03:54.831Z,91.36
2022-12-24T08:06:21.905Z,91.14
2022-12-24T08:08:48.347Z,91.16
2022-12-24T08:11:16.343Z,90.97
2022-12-24T08:13:42.774Z,91.09
2022-12-24T08:16:09.253Z,90.86
2022-12-24T08:18:35.743Z,91.04
2022-12-24T08:21:02.107Z,90.96
2022-12-24T08:23:28.544Z,90.78
2022-12-24T08:25:55.066Z,90.65
2022-12-24T08:28:21.485Z,90.47
2022-12-24T08:30:50.162Z,90.30
2022-12-24T08:33:17.054Z,90.07
2022-12-24T08:35:53.438Z,89.76
2022-12-24T08:38:20.798Z,89.67
2022-12-24T08:40:49.840Z,89.61
2022-12-24T08:43:17.599Z,89.61
2022-12-24T08:45:44.365Z,89.76
2022-12-24T08:48:10.850Z,89.95
2022-12-24T08:50:41.339Z,90.24
2022-12-24T08:53:09.140Z,91.16
2022-12-24T08:55:36.159Z,92.35
2022-12-24T08:58:02.666Z,93.27
2022-12-24T09:00:29.573Z,94.19
2022-12-24T09:02:56.912Z,94.77
2022-12-24T09:05:23.695Z,95.21
2022-12-24T09:07:50.081Z,95.59
2022-12-24T09:10:17.169Z,96.23
2022-12-24T09:12:43.634Z,96.70
2022-12-24T09:15:10.644Z,96.84
2022-12-24T09:17:37.890Z,96.96
2022-12-24T09:20:06.937Z,97.23
2022-12-24T09:22:38.440Z,97.18
2022-12-24T09:25:10.439Z,97.45
2022-12-24T09:27:37.244Z,97.68
2022-12-24T09:30:05.005Z,97.73
2022-12-24T09:32:31.503Z,97.88
2022-12-24T09:34:57.980Z,97.79
2022-12-24T09:37:24.460Z,97.61
2022-12-24T09:39:50.919Z,97.49
2022-12-24T09:42:35.648Z,96.99
2022-12-24T09:45:20.837Z,96.79
2022-12-24T09:47:52.453Z,96.36
2022-12-24T09:50:41.706Z,96.05
2022-12-24T09:53:24.483Z,95.80
2022-12-24T09:55:55.620Z,95.59
2022-12-24T09:58:42.079Z,95.46
2022-12-24T10:01:12.895Z,95.08
2022-12-24T10:03:39.882Z,94.72
2022-12-24T10:06:12.317Z,94.49
2022-12-24T10:09:13.972Z,94.10
2022-12-24T10:11:52.528Z,93.69
2022-12-24T10:14:44.685Z,93.38
2022-12-24T10:17:48.873Z,92.92
2022-12-24T10:20:50.810Z,92.79
2022-12-24T10:23:37.144Z,92.33
2022-12-24T10:26:20.578Z,91.90
2022-12-24T10:28:53.570Z,91.41
2022-12-24T10:31:31.235Z,91.24
2022-12-24T10:34:04.968Z,91.02
2022-12-24T10:36:32.223Z,90.92
2022-12-24T10:38:59.214Z,90.51
2022-12-24T10:41:28.037Z,90.37
2022-12-24T10:43:55.260Z,90.50
2022-12-24T10:46:24.348Z,90.26
2022-12-24T10:48:53.292Z,90.13
2022-12-24T10:51:27.204Z,90.24
2022-12-24T10:54:06.745Z,90.01
2022-12-24T10:56:40.547Z,89.20
2022-12-24T10:59:07.000Z,88.74
2022-12-24T11:01:45.305Z,88.49
2022-12-24T11:04:27.052Z,88.15
2022-12-24T11:07:02.363Z,87.66
2022-12-24T11:09:39.422Z,87.44
2022-12-24T11:12:16.655Z,87.53
2022-12-24T11:14:43.116Z,87.26
2022-12-24T11:17:20.955Z,87.17
2022-12-24T11:19:49.750Z,86.86
2022-12-24T11:22:24.408Z,86.57
2022-12-24T11:25:31.733Z,87.02
2022-12-24T11:28:12.424Z,86.81
2022-12-24T11:30:39.141Z,87.16
2022-12-24T11:33:08.563Z,88.48
2022-12-24T11:35:41.255Z,89.42
2022-12-24T11:38:07.610Z,90.03
2022-12-24T11:40:35.695Z,90.44
2022-12-24T11:43:06.352Z,90.79
2022-12-24T11:45:37.406Z,91.05
2022-12-24T11:48:23.777Z,91.36
2022-12-24T11:50:59.309Z,91.79
2022-12-24T11:53:33.377Z,91.91
2022-12-24T11:56:05.148Z,92.68
2022-12-24T11:58:46.029Z,93.42
2022-12-24T12:01:18.847Z,93.68
2022-12-24T12:03:48.552Z,93.76
2022-12-24T12:06:56.904Z,93.22
2022-12-24T12:09:34.434Z,93.06
2022-12-24T12:12:14.090Z,92.48
2022-12-24T12:14:46.307Z,91.94
2022-12-24T12:17:27.038Z,91.34
2022-12-24T12:20:00.194Z,91.16
2022-12-24T12:22:45.117Z,91.17
2022-12-24T12:25:21.781Z,91.61
2022-12-24T12:27:52.948Z,91.92
2022-12-24T12:30:21.749Z,92.67
2022-12-24T12:33:02.587Z,92.94
2022-12-24T12:35:34.176Z,93.01
2022-12-24T12:38:12.182Z,92.87
2022-12-24T12:41:03.593Z,92.95
2022-12-24T12:44:02.333Z,92.67
2022-12-24T12:46:47.085Z,92.38
2022-12-24T12:49:25.729Z,92.46
2022-12-24T12:52:17.050Z,91.94
2022-12-24T12:55:02.539Z,91.96
2022-12-24T12:57:35.087Z,91.91
2022-12-24T13:00:06.470Z,88.69
2022-12-24T13:02:51.178Z,85.23
2022-12-24T13:05:29.529Z,82.21
2022-12-24T13:08:20.950Z,78.60
2022-12-24T13:11:21.145Z,77.81
2022-12-24T13:13:55.679Z,77.10
2022-12-24T13:16:25.413Z,78.34
2022-12-24T13:19:09.976Z,79.63
2022-12-24T13:21:36.453Z,80.85
2022-12-24T13:24:15.589Z,81.97
2022-12-24T13:26:42.900Z,83.46
2022-12-24T13:29:35.405Z,83.96
2022-12-24T13:32:20.199Z,84.56
2022-12-24T13:35:00.932Z,85.49
2022-12-24T13:37:30.365Z,85.96
2022-12-24T13:40:05.840Z,86.45
2022-12-24T13:42:58.684Z,86.79
2022-12-24T13:45:34.348Z,87.57
2022-12-24T13:48:06.634Z,87.78
2022-12-24T13:50:53.589Z,88.35
2022-12-24T13:53:26.449Z,90.47
2022-12-24T13:56:21.519Z,88.84
2022-12-24T13:59:10.499Z,86.66
2022-12-24T14:01:40.613Z,87.45
2022-12-24T14:04:10.629Z,88.80
2022-12-24T14:06:41.210Z,90.54
2022-12-24T14:09:15.574Z,92.76
2022-12-24T14:11:56.007Z,94.97
2022-12-24T14:14:33.757Z,96.14
2022-12-24T14:17:03.417Z,97.55
2022-12-24T14:19:40.797Z,98.49
2022-12-24T14:22:27.116Z,99.53
2022-12-24T14:24:58.272Z,99.98
2022-12-24T14:27:47.933Z,100.00
2022-12-24T14:30:22.715Z,100.00
2022-12-24T14:32:50.332Z,100.00
2022-12-24T14:35:23.415Z,100.00
2022-12-24T14:38:13.269Z,100.00
2022-12-24T14:41:06.213Z,100.00
2022-12-24T14:44:00.641Z,100.00
2022-12-24T14:46:38.034Z,100.00
2022-12-24T14:49:22.202Z,100.00
2022-12-24T14:52:18.453Z,100.00
2022-12-24T14:54:53.885Z,100.00
2022-12-24T14:57:26.279Z,100.00
2022-12-24T15:00:00.569Z,100.00
2022-12-24T15:02:37.655Z,100.00
2022-12-24T15:05:23.475Z,100.00
2022-12-24T15:07:56.809Z,100.00
2022-12-24T15:10:35.482Z,100.00
2022-12-24T15:13:05.546Z,100.00
2022-12-24T15:15:33.892Z,100.00
2022-12-24T15:18:02.280Z,100.00
2022-12-24T15:20:29.725Z,100.00
2022-12-24T15:22:58.050Z,100.00
2022-12-24T15:25:30.535Z,100.00
2022-12-24T15:27:57.495Z,100.00
2022-12-24T15:30:28.014Z,100.00
2022-12-24T15:32:56.838Z,100.00
2022-12-24T15:35:56.619Z,100.00
2022-12-24T15:38:34.755Z,100.00
2022-12-24T15:41:04.702Z,100.00
2022-12-24T15:43:32.691Z,100.00
2022-12-24T15:46:00.553Z,100.00
2022-12-24T15:48:30.080Z,100.00
2022-12-24T15:51:02.596Z,100.00
2022-12-24T15:53:32.094Z,100.00
2022-12-24T15:56:27.669Z,100.00
2022-12-24T15:59:17.912Z,100.00
2022-12-24T16:01:45.524Z,100.00
2022-12-24T16:04:15.352Z,100.00
2022-12-24T16:06:53.707Z,100.00
2022-12-24T16:09:42.525Z,100.00
2022-12-24T16:12:15.798Z,100.00
2022-12-24T16:14:48.103Z,100.00
2022-12-24T16:17:20.691Z,100.00
2022-12-24T16:19:50.427Z,100.00
2022-12-24T16:22:31.950Z,100.00
2022-12-24T16:25:22.927Z,100.00
2022-12-24T16:27:50.759Z,100.00
2022-12-24T16:30:18.606Z,100.00
2022-12-24T16:32:46.106Z,100.00
2022-12-24T16:35:33.216Z,100.00
2022-12-24T16:37:59.742Z,100.00
2022-12-24T16:40:27.992Z,100.00
2022-12-24T16:43:16.296Z,100.00
2022-12-24T16:45:44.836Z,100.00
2022-12-24T16:48:19.220Z,100.00
2022-12-24T16:50:45.747Z,100.00
2022-12-24T16:53:17.893Z,100.00
2022-12-24T16:55:45.970Z,100.00
2022-12-24T16:58:14.292Z,100.00
2022-12-24T17:00:41.942Z,100.00
2022-12-24T17:03:09.256Z,100.00
2022-12-24T17:05:40.664Z,100.00
2022-12-24T17:08:08.093Z,100.00
2022-12-24T17:10:35.339Z,100.00
2022-12-24T17:13:02.063Z,100.00
2022-12-24T17:15:29.199Z,100.00
2022-12-24T17:17:55.678Z,100.00
2022-12-24T17:20:24.439Z,100.00
2022-12-24T17:22:51.418Z,100.00
2022-12-24T17:25:18.028Z,100.00
2022-12-24T17:27:44.537Z,100.00
2022-12-24T17:30:11.273Z,100.00
2022-12-24T17:32:37.689Z,100.00
2022-12-24T17:35:04.477Z,100.00
2022-12-24T17:37:30.986Z,100.00
2022-12-24T17:39:57.475Z,100.00
2022-12-24T17:42:24.037Z,100.00
2022-12-24T17:44:50.539Z,100.00
2022-12-24T17:47:17.051Z,100.00
2022-12-24T17:49:43.474Z,100.00
2022-12-24T17:52:09.976Z,100.00
2022-12-24T17:54:36.505Z,99.96
2022-12-24T17:57:03.035Z,99.83
2022-12-24T17:59:29.464Z,99.47
2022-12-24T18:01:56.015Z,99.65
2022-12-24T18:04:22.653Z,99.38
2022-12-24T18:06:49.945Z,99.24
2022-12-24T18:09:17.162Z,99.06
2022-12-24T18:11:43.585Z,99.08
2022-12-24T18:14:13.957Z,99.14
2022-12-24T18:16:41.210Z,99.19
2022-12-24T18:19:10.378Z,99.28
2022-12-24T18:21:36.788Z,99.40
2022-12-24T18:24:03.788Z,99.43
2022-12-24T18:26:30.760Z,99.82
2022-12-24T18:29:00.020Z,99.51
2022-12-24T18:31:28.803Z,99.94
2022-12-24T18:33:56.761Z,99.75
2022-12-24T18:36:23.677Z,99.68
2022-12-24T18:38:50.596Z,99.52
2022-12-24T18:41:20.306Z,99.83
2022-12-24T18:43:47.139Z,99.73
2022-12-24T18:46:15.816Z,99.54
2022-12-24T18:48:42.680Z,99.39
2022-12-24T18:51:10.211Z,99.20
2022-12-24T18:53:36.806Z,99.44
2022-12-24T18:56:10.307Z,98.86
2022-12-24T18:58:37.921Z,98.70
2022-12-24T19:01:26.368Z,98.79
2022-12-24T19:03:53.534Z,98.88
2022-12-24T19:06:21.000Z,98.92
2022-12-24T19:08:57.875Z,99.49
2022-12-24T19:11:27.154Z,99.51
2022-12-24T19:13:53.611Z,99.53
2022-12-24T19:16:21.047Z,99.12
2022-12-24T19:18:47.661Z,99.21
2022-12-24T19:21:15.514Z,98.72
2022-12-24T19:23:42.050Z,99.12
2022-12-24T19:26:10.125Z,99.62
2022-12-24T19:28:36.599Z,99.33
2022-12-24T19:31:11.844Z,99.09
2022-12-24T19:33:44.658Z,99.09
2022-12-24T19:36:14.622Z,99.32
2022-12-24T19:38:41.073Z,99.15
2022-12-24T19:41:09.459Z,98.82
2022-12-24T19:43:38.302Z,98.98
2022-12-24T19:46:04.972Z,98.73
2022-12-24T19:48:31.596Z,98.80
2022-12-24T19:51:05.492Z,98.83
2022-12-24T19:53:31.995Z,98.91
2022-12-24T19:55:58.927Z,98.97
2022-12-24T19:58:26.969Z,98.78
2022-12-24T20:00:53.907Z,98.76
2022-12-24T20:03:20.915Z,98.75
2022-12-24T20:05:47.585Z,98.64
2022-12-24T20:08:14.043Z,98.82
2022-12-24T20:10:42.113Z,98.90
2022-12-24T20:13:09.412Z,98.92
2022-12-24T20:15:40.324Z,98.68
2022-12-24T20:18:07.395Z,98.87
2022-12-24T20:20:34.213Z,98.53
2022-12-24T20:23:01.264Z,98.34
2022-12-24T20:25:27.747Z,97.98
2022-12-24T20:27:54.424Z,98.08
2022-12-24T20:30:20.955Z,97.83
2022-12-24T20:33:06.444Z,97.80
2022-12-24T20:35:34.982Z,98.04
2022-12-24T20:38:01.403Z,98.33
2022-12-24T20:40:27.789Z,97.98
2022-12-24T20:42:54.189Z,98.44
2022-12-24T20:45:20.731Z,99.04
2022-12-24T20:47:47.145Z,99.69
2022-12-24T20:50:13.974Z,99.66
2022-12-24T20:52:40.565Z,99.90
2022-12-24T20:55:07.162Z,99.97
2022-12-24T20:57:36.482Z,100.00
2022-12-24T21:00:05.038Z,100.00
2022-12-24T21:02:31.607Z,99.99
2022-12-24T21:05:02.024Z,99.99
2022-12-24T21:07:29.316Z,99.95
2022-12-24T21:09:55.775Z,99.59
2022-12-24T21:12:40.917Z,99.82
2022-12-24T21:15:07.544Z,99.35
2022-12-24T21:17:33.965Z,99.35
2022-12-24T21:20:00.595Z,99.31
2022-12-24T21:22:27.065Z,99.34
2022-12-24T21:24:53.489Z,99.53
2022-12-24T21:27:19.920Z,99.37
2022-12-24T21:29:46.591Z,99.70
2022-12-24T21:32:13.142Z,99.32
2022-12-24T21:34:39.584Z,98.86
2022-12-24T21:37:06.035Z,98.64
2022-12-24T21:39:32.561Z,98.25
2022-12-24T21:41:59.046Z,98.14
2022-12-24T21:44:25.568Z,98.39
2022-12-24T21:46:51.993Z,98.21
2022-12-24T21:49:37.254Z,98.01
2022-12-24T21:52:04.063Z,98.17
2022-12-24T21:54:31.394Z,98.19
2022-12-24T21:57:19.651Z,98.25
2022-12-24T21:59:49.127Z,98.23
2022-12-24T22:02:16.468Z,98.18
2022-12-24T22:04:43.929Z,98.17
2022-12-24T22:07:46.543Z,98.62
2022-12-24T22:10:33.174Z,98.99
2022-12-24T22:13:00.762Z,99.24
2022-12-24T22:15:27.401Z,99.36
2022-12-24T22:17:53.815Z,99.59
2022-12-24T22:20:20.244Z,99.72
2022-12-24T22:22:48.673Z,99.60
2022-12-24T22:25:15.619Z,99.85
2022-12-24T22:27:41.994Z,99.98
2022-12-24T22:30:09.334Z,99.98
2022-12-24T22:32:36.067Z,99.99
2022-12-24T22:35:02.548Z,100.00
2022-12-24T22:37:29.001Z,100.00
2022-12-24T22:39:55.699Z,100.00
2022-12-24T22:42:22.147Z,100.00
2022-12-24T22:44:48.814Z,100.00
2022-12-24T22:47:15.292Z,100.00
2022-12-24T22:49:41.677Z,100.00
2022-12-24T22:52:08.225Z,100.00
2022-12-24T22:54:36.218Z,100.00
2022-12-24T22:57:02.645Z,100.00
2022-12-24T22:59:29.201Z,100.00
2022-12-24T23:01:56.423Z,100.00
2022-12-24T23:04:23.052Z,100.00
2022-12-24T23:06:49.655Z,100.00
2022-12-24T23:09:17.422Z,100.00
2022-12-24T23:11:44.878Z,100.00
2022-12-24T23:14:38.789Z,100.00
2022-12-24T23:17:06.282Z,100.00
2022-12-24T23:19:33.560Z,100.00
2022-12-24T23:22:01.817Z,100.00
2022-12-24T23:24:28.645Z,100.00
2022-12-24T23:26:55.780Z,100.00
2022-12-24T23:29:22.191Z,100.00
2022-12-24T23:31:48.641Z,100.00
2022-12-24T23:34:15.089Z,100.00
2022-12-24T23:36:41.537Z,100.00
2022-12-24T23:39:07.928Z,100.00
2022-12-24T23:41:34.339Z,100.00
2022-12-24T23:44:00.836Z,100.00
2022-12-24T23:46:27.376Z,100.00
2022-12-24T23:48:55.107Z,100.00
2022-12-24T23:51:25.036Z,100.00
2022-12-24T23:53:53.421Z,100.00
2022-12-24T23:56:21.238Z,100.00
2022-12-24T23:58:48.677Z,100.00
